createdAt,value
2022-12-31T00:00:09.957Z,2.80
2022-12-31T00:02:37.293Z,1.70
2022-12-31T00:05:05.145Z,1.95
2022-12-31T00:10:00.596Z,3.67
2022-12-31T00:12:30.722Z,2.35
2022-12-31T00:14:59.009Z,1.67
2022-12-31T00:17:26.247Z,1.38
2022-12-31T00:19:53.458Z,1.75
2022-12-31T00:22:20.649Z,1.80
2022-12-31T00:24:48.505Z,1.98
2022-12-31T00:27:16.293Z,1.40
2022-12-31T00:29:44.625Z,2.17
2022-12-31T00:32:12.037Z,1.33
2022-12-31T00:34:40.073Z,1.33
2022-12-31T00:37:19.408Z,1.15
2022-12-31T00:40:06.614Z,1.80
2022-12-31T00:42:46.074Z,1.58
2022-12-31T00:45:51.912Z,1.48
2022-12-31T00:48:18.395Z,2.25
2022-12-31T00:50:53.232Z,1.30
2022-12-31T00:53:48.514Z,0.93
2022-12-31T00:59:55.804Z,2.30
2022-12-31T01:02:34.764Z,1.45
2022-12-31T01:05:01.400Z,0.65
2022-12-31T01:07:29.595Z,0.50
2022-12-31T01:09:57.061Z,0.90
2022-12-31T01:12:25.229Z,1.17
2022-12-31T01:14:53.562Z,1.42
2022-12-31T01:17:21.170Z,0.93
2022-12-31T01:19:49.511Z,1.50
2022-12-31T01:22:20.139Z,1.00
2022-12-31T01:24:46.716Z,5.53
2022-12-31T01:27:32.049Z,0.90
2022-12-31T01:30:00.595Z,1.88
2022-12-31T01:32:29.076Z,2.53
2022-12-31T01:35:14.417Z,2.53
2022-12-31T01:37:50.951Z,1.67
2022-12-31T01:40:17.707Z,2.22
2022-12-31T01:42:44.222Z,1.83
2022-12-31T01:45:17.568Z,2.73
2022-12-31T01:47:51.884Z,2.75
2022-12-31T01:50:24.378Z,1.65
2022-12-31T01:52:56.844Z,8.35
2022-12-31T01:55:29.714Z,1.58
2022-12-31T01:58:04.236Z,3.53
2022-12-31T02:00:31.922Z,4.97
2022-12-31T02:02:59.109Z,1.95
2022-12-31T02:05:34.615Z,4.05
2022-12-31T02:08:03.192Z,0.93
2022-12-31T02:10:30.657Z,4.37
2022-12-31T02:12:57.759Z,2.15
2022-12-31T02:15:37.515Z,1.42
2022-12-31T02:18:15.184Z,4.32
2022-12-31T02:21:16.341Z,2.53
2022-12-31T02:24:13.228Z,2.53
2022-12-31T02:27:07.712Z,1.50
2022-12-31T02:30:04.301Z,1.05
2022-12-31T02:32:48.754Z,0.65
2022-12-31T02:35:45.079Z,1.55
2022-12-31T02:38:19.100Z,1.53
2022-12-31T02:40:45.838Z,0.80
2022-12-31T02:43:12.534Z,1.17
2022-12-31T02:45:43.226Z,0.70
2022-12-31T02:48:28.538Z,3.28
2022-12-31T02:51:24.073Z,1.23
2022-12-31T02:54:19.919Z,1.70
2022-12-31T02:57:01.520Z,4.45
2022-12-31T02:59:59.049Z,2.15
2022-12-31T03:02:30.696Z,1.35
2022-12-31T03:04:57.884Z,3.70
2022-12-31T03:07:29.892Z,1.58
2022-12-31T03:09:56.487Z,1.80
2022-12-31T03:12:45.320Z,1.42
2022-12-31T03:15:20.613Z,1.10
2022-12-31T03:18:39.105Z,2.17
2022-12-31T03:21:31.328Z,0.88
2022-12-31T03:24:16.477Z,6.70
2022-12-31T03:26:42.956Z,1.98
2022-12-31T03:29:09.407Z,1.67
2022-12-31T03:31:35.858Z,1.33
2022-12-31T03:34:02.571Z,1.10
2022-12-31T03:36:29.040Z,3.97
2022-12-31T03:38:55.980Z,3.67
2022-12-31T03:41:22.392Z,3.80
2022-12-31T03:43:49.025Z,0.80
2022-12-31T03:46:15.516Z,2.85
2022-12-31T03:48:42.038Z,0.70
2022-12-31T03:51:08.729Z,0.60
2022-12-31T03:53:35.659Z,2.47
2022-12-31T03:56:02.215Z,1.70
2022-12-31T03:58:28.647Z,1.55
2022-12-31T04:00:55.152Z,1.50
2022-12-31T04:03:21.933Z,0.55
2022-12-31T04:05:55.712Z,1.30
2022-12-31T04:08:22.301Z,1.10
2022-12-31T04:10:48.881Z,1.02
2022-12-31T04:13:15.374Z,0.30
2022-12-31T04:15:41.856Z,0.63
2022-12-31T04:18:08.397Z,1.10
2022-12-31T04:20:34.868Z,1.27
2022-12-31T04:23:01.499Z,1.92
2022-12-31T04:25:28.015Z,1.30
2022-12-31T04:27:54.557Z,0.50
2022-12-31T04:30:21.022Z,1.80
2022-12-31T04:32:47.540Z,0.87
2022-12-31T04:35:13.952Z,1.55
2022-12-31T04:37:40.502Z,1.20
2022-12-31T04:40:08.701Z,1.35
2022-12-31T04:42:36.346Z,1.48
2022-12-31T04:45:03.264Z,1.10
2022-12-31T04:47:29.996Z,1.70
2022-12-31T04:49:56.422Z,1.42
2022-12-31T04:52:23.362Z,0.88
2022-12-31T04:54:49.921Z,2.05
2022-12-31T04:57:16.413Z,1.10
2022-12-31T04:59:43.028Z,1.85
2022-12-31T05:02:09.710Z,0.85
2022-12-31T05:04:36.292Z,1.30
2022-12-31T05:07:03.133Z,0.88
2022-12-31T05:09:29.761Z,1.83
2022-12-31T05:11:56.381Z,1.08
2022-12-31T05:14:22.904Z,0.82
2022-12-31T05:16:49.525Z,0.90
2022-12-31T05:19:16.062Z,1.33
2022-12-31T05:21:43.755Z,1.40
2022-12-31T05:24:10.206Z,1.05
2022-12-31T05:26:36.686Z,1.77
2022-12-31T05:29:03.271Z,2.35
2022-12-31T05:31:29.863Z,0.93
2022-12-31T05:33:56.665Z,0.50
2022-12-31T05:36:23.241Z,0.60
2022-12-31T05:38:49.691Z,0.52
2022-12-31T05:41:16.208Z,2.28
2022-12-31T05:43:42.746Z,2.05
2022-12-31T05:46:09.283Z,0.93
2022-12-31T05:48:35.774Z,0.80
2022-12-31T05:51:02.292Z,0.73
2022-12-31T05:53:28.813Z,0.85
2022-12-31T05:55:55.234Z,0.80
2022-12-31T05:58:21.725Z,0.83
2022-12-31T06:00:48.303Z,0.90
2022-12-31T06:03:15.112Z,1.15
2022-12-31T06:05:42.829Z,2.25
2022-12-31T06:08:10.780Z,0.55
2022-12-31T06:10:37.634Z,0.50
2022-12-31T06:13:04.754Z,0.50
2022-12-31T06:15:31.481Z,1.02
2022-12-31T06:17:58.054Z,0.50
2022-12-31T06:20:24.648Z,0.68
2022-12-31T06:22:51.229Z,2.70
2022-12-31T06:25:17.720Z,0.63
2022-12-31T06:27:44.261Z,0.68
2022-12-31T06:30:11.392Z,0.70
2022-12-31T06:32:39.457Z,1.05
2022-12-31T06:35:07.085Z,1.73
2022-12-31T06:37:35.108Z,0.95
2022-12-31T06:40:01.905Z,0.75
2022-12-31T06:42:30.884Z,1.35
2022-12-31T06:44:58.853Z,0.98
2022-12-31T06:47:25.901Z,1.20
2022-12-31T06:49:53.102Z,3.33
2022-12-31T06:52:20.541Z,1.13
2022-12-31T06:54:48.290Z,1.00
2022-12-31T06:57:15.493Z,1.75
2022-12-31T06:59:42.365Z,1.00
2022-12-31T07:02:27.242Z,1.50
2022-12-31T07:05:27.527Z,1.35
2022-12-31T07:08:00.926Z,1.83
2022-12-31T07:10:36.212Z,1.35
2022-12-31T07:13:21.647Z,1.67
2022-12-31T07:16:30.364Z,1.63
2022-12-31T07:19:24.843Z,0.80
2022-12-31T07:21:54.044Z,1.65
2022-12-31T07:24:24.363Z,1.08
2022-12-31T07:27:08.257Z,0.73
2022-12-31T07:29:53.144Z,0.63
2022-12-31T07:32:57.373Z,0.40
2022-12-31T07:35:45.253Z,0.82
2022-12-31T07:38:21.132Z,1.65
2022-12-31T07:40:53.816Z,0.53
2022-12-31T07:43:31.155Z,0.20
2022-12-31T07:46:32.011Z,0.13
2022-12-31T07:48:58.925Z,0.52
2022-12-31T07:51:25.866Z,3.00
2022-12-31T07:53:52.395Z,0.57
2022-12-31T07:56:19.005Z,0.10
2022-12-31T07:59:05.162Z,0.30
2022-12-31T08:01:41.906Z,0.95
2022-12-31T08:04:22.706Z,1.13
2022-12-31T08:06:55.505Z,0.30
2022-12-31T08:09:40.518Z,1.77
2022-12-31T08:12:08.072Z,1.70
2022-12-31T08:14:44.173Z,0.68
2022-12-31T08:17:15.777Z,0.68
2022-12-31T08:19:43.830Z,2.87
2022-12-31T08:22:48.067Z,0.95
2022-12-31T08:25:23.533Z,0.98
2022-12-31T08:27:56.232Z,1.27
2022-12-31T08:30:26.619Z,0.40
2022-12-31T08:33:05.275Z,3.50
2022-12-31T08:35:48.576Z,0.30
2022-12-31T08:38:41.802Z,0.40
2022-12-31T08:41:20.603Z,0.43
2022-12-31T08:44:14.738Z,0.30
2022-12-31T08:46:54.495Z,2.73
2022-12-31T08:49:21.124Z,0.85
2022-12-31T08:51:48.631Z,0.30
2022-12-31T08:54:15.904Z,1.05
2022-12-31T08:57:10.150Z,0.95
2022-12-31T09:00:04.535Z,0.10
2022-12-31T09:02:53.171Z,2.75
2022-12-31T09:05:55.203Z,0.57
2022-12-31T09:08:38.256Z,0.65
2022-12-31T09:11:19.168Z,0.73
2022-12-31T09:14:23.283Z,0.60
2022-12-31T09:16:49.776Z,1.42
2022-12-31T09:19:16.433Z,3.40
2022-12-31T09:21:44.450Z,0.70
2022-12-31T09:24:15.692Z,0.55
2022-12-31T09:27:27.775Z,0.93
2022-12-31T09:30:07.797Z,3.10
2022-12-31T09:32:47.913Z,1.83
2022-12-31T09:35:36.309Z,3.03
2022-12-31T09:38:24.734Z,3.80
2022-12-31T09:40:59.708Z,5.13
2022-12-31T09:43:35.480Z,3.60
2022-12-31T09:46:17.459Z,4.25
2022-12-31T09:48:55.924Z,1.92
2022-12-31T09:51:30.117Z,4.40
2022-12-31T09:54:15.106Z,3.27
2022-12-31T09:57:25.419Z,5.82
2022-12-31T10:00:10.934Z,3.25
2022-12-31T10:02:59.644Z,6.53
2022-12-31T10:06:04.503Z,3.30
2022-12-31T10:08:40.161Z,1.97
2022-12-31T10:11:18.662Z,7.93
2022-12-31T10:14:12.539Z,1.80
2022-12-31T10:17:04.025Z,2.92
2022-12-31T10:19:52.418Z,2.13
2022-12-31T10:22:34.065Z,1.23
2022-12-31T10:25:10.375Z,1.45
2022-12-31T10:27:49.651Z,2.13
2022-12-31T10:30:21.164Z,3.35
2022-12-31T10:33:07.888Z,3.40
2022-12-31T10:35:53.964Z,4.53
2022-12-31T10:41:55.598Z,2.42
2022-12-31T10:44:39.916Z,7.75
2022-12-31T10:47:30.010Z,2.78
2022-12-31T10:50:19.546Z,1.77
2022-12-31T10:53:22.798Z,1.50
2022-12-31T10:56:00.579Z,0.70
2022-12-31T10:59:03.785Z,1.30
2022-12-31T11:01:32.891Z,2.55
2022-12-31T11:04:18.638Z,0.97
2022-12-31T11:07:37.607Z,2.00
2022-12-31T11:10:33.584Z,2.33
2022-12-31T11:13:31.180Z,1.92
2022-12-31T11:16:16.118Z,2.97
2022-12-31T11:18:54.690Z,1.87
2022-12-31T11:21:41.012Z,2.03
2022-12-31T11:24:37.934Z,4.93
2022-12-31T11:27:25.906Z,2.38
2022-12-31T11:30:07.113Z,2.90
2022-12-31T11:32:46.345Z,3.73
2022-12-31T11:35:22.182Z,2.10
2022-12-31T11:38:10.203Z,3.42
2022-12-31T11:40:42.455Z,3.40
2022-12-31T11:43:37.545Z,4.88
2022-12-31T11:46:10.531Z,3.03
2022-12-31T11:49:16.327Z,2.85
2022-12-31T11:52:21.762Z,1.92
2022-12-31T11:54:54.405Z,2.55
2022-12-31T11:57:29.985Z,2.70
2022-12-31T12:00:06.937Z,3.40
2022-12-31T12:02:41.716Z,3.63
2022-12-31T12:05:10.967Z,2.15
2022-12-31T12:07:38.469Z,5.78
2022-12-31T12:10:21.047Z,1.25
2022-12-31T12:12:47.744Z,1.63
2022-12-31T12:15:21.034Z,5.68
2022-12-31T12:17:52.688Z,3.22
2022-12-31T12:20:29.335Z,2.67
2022-12-31T12:22:58.304Z,2.13
2022-12-31T12:25:28.152Z,4.63
2022-12-31T12:27:54.738Z,4.53
2022-12-31T12:30:26.179Z,2.33
2022-12-31T12:33:02.345Z,6.68
2022-12-31T12:35:31.997Z,3.35
2022-12-31T12:38:05.493Z,2.40
2022-12-31T12:40:34.632Z,6.38
2022-12-31T12:43:02.621Z,2.85
2022-12-31T12:45:51.738Z,2.95
2022-12-31T12:48:39.237Z,3.38
2022-12-31T12:51:33.561Z,5.07
2022-12-31T12:54:03.676Z,2.75
2022-12-31T12:56:52.233Z,1.85
2022-12-31T12:59:40.876Z,1.80
2022-12-31T13:02:41.834Z,1.52
2022-12-31T13:05:28.292Z,5.03
2022-12-31T13:08:18.216Z,3.28
2022-12-31T13:11:18.302Z,4.45
2022-12-31T13:14:20.098Z,2.05
2022-12-31T13:17:07.209Z,1.98
2022-12-31T13:19:39.072Z,3.57
2022-12-31T13:22:22.674Z,2.33
2022-12-31T13:24:58.678Z,4.45
2022-12-31T13:27:39.118Z,3.08
2022-12-31T13:30:19.765Z,2.53
2022-12-31T13:32:51.783Z,4.97
2022-12-31T13:35:36.969Z,5.00
2022-12-31T13:38:14.802Z,2.22
2022-12-31T13:41:02.185Z,5.22
2022-12-31T13:43:38.149Z,4.47
2022-12-31T13:46:16.325Z,3.80
2022-12-31T13:49:21.307Z,3.28
2022-12-31T13:51:58.777Z,2.28
2022-12-31T13:54:56.090Z,3.90
2022-12-31T13:57:46.192Z,2.13
2022-12-31T14:00:24.511Z,4.90
2022-12-31T14:03:02.843Z,6.97
2022-12-31T14:05:38.254Z,6.45
2022-12-31T14:08:06.482Z,2.83
2022-12-31T14:10:57.595Z,1.70
2022-12-31T14:13:38.610Z,2.50
2022-12-31T14:16:20.452Z,6.75
2022-12-31T14:19:31.607Z,5.05
2022-12-31T14:22:08.933Z,2.65
2022-12-31T14:25:14.382Z,2.25
2022-12-31T14:27:44.699Z,3.40
2022-12-31T14:30:23.286Z,3.03
2022-12-31T14:33:28.169Z,11.13
2022-12-31T14:36:19.842Z,5.28
2022-12-31T14:39:33.081Z,5.63
2022-12-31T14:42:23.015Z,6.47
2022-12-31T14:45:17.733Z,5.00
2022-12-31T14:47:59.295Z,3.60
2022-12-31T14:50:28.646Z,4.05
2022-12-31T14:53:06.874Z,4.05
2022-12-31T14:55:38.736Z,7.63
2022-12-31T14:58:28.851Z,4.45
2022-12-31T15:00:59.215Z,5.53
2022-12-31T15:03:43.000Z,5.00
2022-12-31T15:06:37.702Z,4.32
2022-12-31T15:09:20.399Z,5.93
2022-12-31T15:12:05.830Z,2.83
2022-12-31T15:15:00.400Z,6.82
2022-12-31T15:17:41.966Z,6.65
2022-12-31T15:20:27.783Z,3.92
2022-12-31T15:22:54.804Z,6.93
2022-12-31T15:25:40.467Z,5.03
2022-12-31T15:28:26.800Z,4.25
2022-12-31T15:30:58.781Z,4.57
2022-12-31T15:33:31.917Z,5.68
2022-12-31T15:36:18.636Z,5.23
2022-12-31T15:38:45.939Z,11.90
2022-12-31T15:41:46.226Z,10.52
2022-12-31T15:44:44.967Z,14.07
2022-12-31T15:47:31.471Z,9.45
2022-12-31T15:50:06.698Z,7.90
2022-12-31T15:52:43.679Z,7.13
2022-12-31T15:55:23.434Z,4.40
2022-12-31T15:57:50.763Z,11.32
2022-12-31T16:00:22.723Z,5.25
2022-12-31T16:02:54.473Z,6.67
2022-12-31T16:05:26.625Z,9.82
2022-12-31T16:07:58.933Z,7.43
2022-12-31T16:10:29.336Z,8.15
2022-12-31T16:12:58.002Z,11.43
2022-12-31T16:15:29.697Z,7.97
2022-12-31T16:18:05.956Z,9.23
2022-12-31T16:20:34.596Z,5.47
2022-12-31T16:23:03.415Z,9.95
2022-12-31T16:25:32.932Z,9.25
2022-12-31T16:28:02.604Z,5.10
2022-12-31T16:30:31.050Z,8.65
2022-12-31T16:33:03.914Z,7.65
2022-12-31T16:35:36.885Z,11.60
2022-12-31T16:38:18.028Z,5.97
2022-12-31T16:41:04.758Z,19.17
2022-12-31T16:43:31.284Z,12.77
2022-12-31T16:46:09.062Z,7.55
2022-12-31T16:48:36.239Z,8.82
2022-12-31T16:51:03.567Z,6.13
2022-12-31T16:53:36.470Z,8.80
2022-12-31T16:56:11.267Z,5.80
2022-12-31T16:58:42.414Z,6.55
2022-12-31T17:01:22.024Z,7.18
2022-12-31T17:03:56.401Z,6.38
2022-12-31T17:06:23.352Z,4.70
2022-12-31T17:08:55.858Z,5.25
2022-12-31T17:11:35.630Z,5.63
2022-12-31T17:14:05.368Z,6.35
2022-12-31T17:16:34.467Z,10.35
2022-12-31T17:19:01.616Z,5.30
2022-12-31T17:21:31.630Z,7.90
2022-12-31T17:24:04.320Z,7.28
2022-12-31T17:26:33.893Z,6.05
2022-12-31T17:29:02.617Z,16.65
2022-12-31T17:31:40.788Z,6.43
2022-12-31T17:34:13.367Z,8.73
2022-12-31T17:37:03.919Z,5.43
2022-12-31T17:39:50.925Z,6.63
2022-12-31T17:42:28.242Z,9.68
2022-12-31T17:44:58.898Z,7.90
2022-12-31T17:47:33.538Z,8.30
2022-12-31T17:50:25.150Z,7.93
2022-12-31T17:53:10.856Z,12.32
2022-12-31T17:55:37.815Z,6.70
2022-12-31T17:58:06.605Z,7.87
2022-12-31T18:00:36.671Z,12.02
2022-12-31T18:03:03.720Z,7.53
2022-12-31T18:05:30.265Z,7.93
2022-12-31T18:07:56.940Z,5.95
2022-12-31T18:10:25.297Z,6.00
2022-12-31T18:12:52.037Z,8.35
2022-12-31T18:15:21.690Z,7.47
2022-12-31T18:17:48.930Z,12.80
2022-12-31T18:20:16.039Z,9.05
2022-12-31T18:22:43.761Z,12.50
2022-12-31T18:25:19.761Z,10.88
2022-12-31T18:27:46.941Z,12.50
2022-12-31T18:30:13.740Z,9.65
2022-12-31T18:32:41.606Z,9.73
2022-12-31T18:35:58.140Z,13.63
2022-12-31T18:38:14.927Z,19.48
2022-12-31T18:40:44.367Z,13.30
2022-12-31T18:43:16.550Z,7.13
2022-12-31T18:45:43.625Z,4.15
2022-12-31T18:48:10.290Z,7.03
2022-12-31T18:50:37.846Z,6.68
2022-12-31T18:53:04.723Z,14.85
2022-12-31T18:55:34.406Z,6.60
2022-12-31T18:58:01.052Z,10.23
2022-12-31T19:00:27.571Z,12.87
2022-12-31T19:02:54.248Z,6.88
2022-12-31T19:05:23.353Z,6.97
2022-12-31T19:07:50.128Z,12.05
2022-12-31T19:10:16.930Z,8.73
2022-12-31T19:12:44.486Z,7.37
2022-12-31T19:15:35.225Z,11.13
2022-12-31T19:18:03.223Z,4.28
2022-12-31T19:20:30.548Z,15.05
2022-12-31T19:22:57.877Z,5.88
2022-12-31T19:25:28.388Z,6.50
2022-12-31T19:27:55.031Z,9.50
2022-12-31T19:30:25.161Z,5.68
2022-12-31T19:32:52.349Z,9.32
2022-12-31T19:35:20.252Z,9.45
2022-12-31T19:37:48.987Z,7.10
2022-12-31T19:40:18.932Z,11.63
2022-12-31T19:42:46.189Z,7.07
2022-12-31T19:45:18.086Z,5.47
2022-12-31T19:47:45.537Z,8.95
2022-12-31T19:50:17.842Z,10.23
2022-12-31T19:52:45.519Z,6.07
2022-12-31T19:55:15.098Z,14.63
2022-12-31T19:57:42.172Z,5.95
2022-12-31T20:00:11.371Z,9.93
2022-12-31T20:02:38.326Z,7.93
2022-12-31T20:05:05.415Z,9.52
2022-12-31T20:07:31.985Z,12.38
2022-12-31T20:09:58.435Z,9.82
2022-12-31T20:12:24.981Z,9.75
2022-12-31T20:14:51.444Z,15.00
2022-12-31T20:17:18.126Z,6.00
2022-12-31T20:19:44.624Z,4.38
2022-12-31T20:22:11.437Z,11.80
2022-12-31T20:24:38.217Z,11.05
2022-12-31T20:27:04.949Z,11.47
2022-12-31T20:29:31.481Z,12.13
2022-12-31T20:31:57.960Z,10.05
2022-12-31T20:34:24.564Z,7.30
2022-12-31T20:36:51.072Z,6.43
2022-12-31T20:39:17.666Z,13.93
2022-12-31T20:41:44.293Z,4.72
2022-12-31T20:44:10.894Z,19.27
2022-12-31T20:46:37.391Z,9.25
2022-12-31T20:49:05.225Z,9.57
2022-12-31T20:51:34.232Z,8.30
2022-12-31T20:54:05.133Z,15.25
2022-12-31T20:56:34.444Z,7.78
2022-12-31T20:59:01.670Z,12.10
2022-12-31T21:01:47.782Z,17.88
2022-12-31T21:04:15.705Z,9.13
2022-12-31T21:06:42.281Z,9.45
2022-12-31T21:09:08.963Z,7.68
2022-12-31T21:11:54.840Z,11.05
2022-12-31T21:14:21.426Z,13.65
2022-12-31T21:16:48.005Z,19.00
2022-12-31T21:19:14.505Z,7.97
2022-12-31T21:21:40.936Z,12.75
2022-12-31T21:24:07.741Z,5.93
2022-12-31T21:26:34.616Z,9.52
2022-12-31T21:29:01.113Z,5.63
2022-12-31T21:31:27.678Z,10.35
2022-12-31T21:33:54.143Z,12.10
2022-12-31T21:36:20.564Z,24.70
2022-12-31T21:38:47.000Z,8.52
2022-12-31T21:41:34.966Z,30.37
2022-12-31T21:44:02.285Z,15.75
2022-12-31T21:46:29.397Z,11.40
2022-12-31T21:48:58.780Z,9.40
2022-12-31T21:51:26.336Z,21.73
2022-12-31T21:53:53.086Z,14.93
2022-12-31T21:56:21.343Z,8.15
2022-12-31T21:59:14.461Z,16.45
2022-12-31T22:01:59.879Z,8.32
2022-12-31T22:07:13.111Z,17.03
2022-12-31T22:09:39.564Z,12.30
2022-12-31T22:12:06.302Z,6.90
2022-12-31T22:14:32.686Z,5.53
2022-12-31T22:16:59.193Z,9.85
2022-12-31T22:19:25.963Z,7.70
2022-12-31T22:21:52.453Z,5.90
2022-12-31T22:24:18.852Z,8.95
2022-12-31T22:26:46.950Z,6.90
2022-12-31T22:29:13.960Z,9.68
2022-12-31T22:31:40.528Z,9.60
2022-12-31T22:34:07.160Z,8.57
2022-12-31T22:36:33.757Z,11.63
2022-12-31T22:39:00.220Z,10.32
2022-12-31T22:41:27.600Z,9.10
2022-12-31T22:44:03.012Z,11.67
2022-12-31T22:46:36.043Z,3.70
2022-12-31T22:49:05.544Z,10.20
2022-12-31T22:51:55.910Z,9.68
2022-12-31T22:54:19.317Z,10.43
2022-12-31T22:56:45.764Z,10.50
2022-12-31T22:59:12.268Z,8.65
2022-12-31T23:01:38.839Z,6.93
2022-12-31T23:04:05.662Z,7.05
2022-12-31T23:06:32.347Z,43.50
2022-12-31T23:09:17.464Z,32.73
2022-12-31T23:11:43.979Z,130.15
2022-12-31T23:14:35.608Z,38.78
2022-12-31T23:17:29.745Z,100.95
2022-12-31T23:20:18.563Z,63.25
2022-12-31T23:23:06.921Z,22.63
2022-12-31T23:25:35.978Z,22.15
2022-12-31T23:28:05.832Z,37.10
2022-12-31T23:30:32.874Z,20.15
2022-12-31T23:32:59.666Z,38.85
2022-12-31T23:35:26.236Z,62.20
2022-12-31T23:37:52.729Z,89.03
2022-12-31T23:40:21.638Z,52.30
2022-12-31T23:42:51.999Z,42.17
2022-12-31T23:45:18.525Z,42.97
2022-12-31T23:47:44.971Z,100.37
2022-12-31T23:50:11.396Z,74.53
2022-12-31T23:52:37.838Z,34.33
2022-12-31T23:55:04.814Z,26.65
2022-12-31T23:57:31.303Z,41.05
2022-12-31T23:59:57.816Z,43.67
